KSDF/SDF METAR and TAF weather

Enter ICAO airport designator
Station Type Date Time Source
KSDF METAR 2018/12/15 03:56 UTC NOAA

KSDF 150356Z 04006KT 10SM -RA BKN013 OVC025 11/09 A2994 RMK AO2 RAB22 SLP139 P0000 T01060089


Station Type Date Time Source
KSDF Decoded METAR 2018/12/15 03:56 UTC NOAA

STANDIFORD FIELD, KY, United States (KSDF) 38-11N 085-44W 146M
Dec 14, 2018 - 10:56 PM EST / 2018.12.15 0356 UTC
Wind: from the NE (040 degrees) at 7 MPH (6 KT):0
Visibility: 10 mile(s):0
Sky conditions: overcast
Weather: light rain
Precipitation last hour: A trace
Temperature: 51.1 F (10.6 C)
Dew Point: 48.0 F (8.9 C)
Relative Humidity: 89%
Pressure (altimeter): 29.94 in. Hg (1013 hPa)
ob: KSDF 150356Z 04006KT 10SM -RA BKN013 OVC025 11/09 A2994 RMK AO2 RAB22 SLP139 P0000 T01060089
cycle: 4

Station Type Date Time Source
KSDF TAF 2018/12/14 21:57 UTC NOAA

TAF
AMD KSDF 142053Z 1421/1524 06008KT 6SM -SHRA BKN035
TEMPO 1421/1501 4SM -SHRA BKN028
FM150100 06009KT P6SM VCSH OVC018
FM150400 06008KT 3SM -SHRA BR OVC007
FM151900 VRB05KT 6SM BR VCSH OVC018


Example: see airport list